createdAt,value
2019-05-06T00:00:37.977Z,70.20
2019-05-06T00:03:08.371Z,70.20
2019-05-06T00:05:38.584Z,70.20
2019-05-06T00:08:08.900Z,70.10
2019-05-06T00:10:39.542Z,70.10
2019-05-06T00:13:09.962Z,70.00
2019-05-06T00:15:40.366Z,70.00
2019-05-06T00:18:10.645Z,69.80
2019-05-06T00:20:41.039Z,69.60
2019-05-06T00:23:14.245Z,69.50
2019-05-06T00:25:45.742Z,69.30
2019-05-06T00:28:17.479Z,69.10
2019-05-06T00:30:49.069Z,68.80
2019-05-06T00:33:19.626Z,68.60
2019-05-06T00:35:49.960Z,68.30
2019-05-06T00:38:20.166Z,68.20
2019-05-06T00:40:51.668Z,67.90
2019-05-06T00:43:23.619Z,67.60
2019-05-06T00:45:53.760Z,67.60
2019-05-06T00:48:24.432Z,67.00
2019-05-06T00:50:55.142Z,66.90
2019-05-06T00:53:26.861Z,66.80
2019-05-06T00:55:57.449Z,66.40
2019-05-06T00:58:27.889Z,65.50
2019-05-06T01:00:58.164Z,66.00
2019-05-06T01:03:29.787Z,65.60
2019-05-06T01:06:00.100Z,65.30
2019-05-06T01:08:30.717Z,65.00
2019-05-06T01:11:03.889Z,64.60
2019-05-06T01:13:35.127Z,64.20
2019-05-06T01:16:05.634Z,63.90
2019-05-06T01:18:36.064Z,63.30
2019-05-06T01:21:07.603Z,63.10
2019-05-06T01:23:37.980Z,62.90
2019-05-06T01:26:08.298Z,61.30
2019-05-06T01:28:38.765Z,60.70
2019-05-06T01:31:09.354Z,61.30
2019-05-06T01:33:39.863Z,61.70
2019-05-06T01:36:09.950Z,61.80
2019-05-06T01:38:41.538Z,61.60
2019-05-06T01:41:13.606Z,61.10
2019-05-06T01:43:45.143Z,61.10
2019-05-06T01:46:16.022Z,61.00
2019-05-06T01:48:47.576Z,61.00
2019-05-06T01:51:19.522Z,60.70
2019-05-06T01:53:50.831Z,60.60
2019-05-06T01:56:21.250Z,60.10
2019-05-06T01:58:53.456Z,59.90
2019-05-06T02:01:25.051Z,60.30
2019-05-06T02:03:55.115Z,60.10
2019-05-06T02:06:25.656Z,60.50
2019-05-06T02:08:56.047Z,60.20
2019-05-06T02:11:26.344Z,60.10
2019-05-06T02:13:56.989Z,59.70
2019-05-06T02:16:27.189Z,59.60
2019-05-06T02:18:57.648Z,59.40
2019-05-06T02:21:29.270Z,59.20
2019-05-06T02:24:00.842Z,59.00
2019-05-06T02:26:31.221Z,58.90
2019-05-06T02:29:04.272Z,57.70
2019-05-06T02:31:35.805Z,58.20
2019-05-06T02:34:07.471Z,57.50
2019-05-06T02:36:39.753Z,57.70
2019-05-06T02:39:10.291Z,57.30
2019-05-06T02:41:42.814Z,57.70
2019-05-06T02:44:13.711Z,57.70
2019-05-06T02:46:45.597Z,57.00
2019-05-06T02:49:17.364Z,57.50
2019-05-06T02:51:48.311Z,57.00
2019-05-06T02:54:18.560Z,57.40
2019-05-06T02:56:49.192Z,57.20
2019-05-06T02:59:19.424Z,56.50
2019-05-06T03:01:49.627Z,56.20
2019-05-06T03:04:20.259Z,56.80
2019-05-06T03:06:52.976Z,56.60
2019-05-06T03:09:23.312Z,56.50
2019-05-06T03:11:54.208Z,56.60
2019-05-06T03:14:24.697Z,56.50
2019-05-06T03:16:55.154Z,55.20
2019-05-06T03:19:26.475Z,55.80
2019-05-06T03:21:58.282Z,55.80
2019-05-06T03:24:32.950Z,55.60
2019-05-06T03:27:04.629Z,55.70
2019-05-06T03:29:33.531Z,55.70
2019-05-06T03:32:07.005Z,55.60
2019-05-06T03:34:58.718Z,55.50
2019-05-06T03:37:08.393Z,55.90
2019-05-06T03:39:39.034Z,55.00
2019-05-06T03:42:09.147Z,54.10
2019-05-06T03:44:43.443Z,54.80
2019-05-06T03:47:13.958Z,54.60
2019-05-06T03:49:49.777Z,54.30
2019-05-06T03:52:17.926Z,54.00
2019-05-06T03:54:48.886Z,53.80
2019-05-06T03:57:22.897Z,53.50
2019-05-06T03:59:53.048Z,53.50
2019-05-06T04:02:24.248Z,53.20
2019-05-06T04:04:56.858Z,52.70
2019-05-06T04:07:27.187Z,52.80
2019-05-06T04:09:57.418Z,52.90
2019-05-06T04:12:29.157Z,52.60
2019-05-06T04:14:59.673Z,52.10
2019-05-06T04:17:32.911Z,51.80
2019-05-06T04:20:05.789Z,51.50
2019-05-06T04:22:38.170Z,51.40
2019-05-06T04:25:09.883Z,51.90
2019-05-06T04:27:43.340Z,51.60
2019-05-06T04:30:13.957Z,51.60
2019-05-06T04:32:44.668Z,51.50
2019-05-06T04:35:14.947Z,51.00
2019-05-06T04:37:45.350Z,51.20
2019-05-06T04:40:16.059Z,50.80
2019-05-06T04:42:46.362Z,50.60
2019-05-06T04:45:17.435Z,50.40
2019-05-06T04:47:48.061Z,50.40
2019-05-06T04:50:18.412Z,50.60
2019-05-06T04:52:49.885Z,50.60
2019-05-06T04:55:22.529Z,50.40
2019-05-06T04:57:53.565Z,50.20
2019-05-06T05:00:24.000Z,49.80
2019-05-06T05:02:54.971Z,50.20
2019-05-06T05:05:26.376Z,50.00
2019-05-06T05:07:56.776Z,49.70
2019-05-06T05:10:28.398Z,49.10
2019-05-06T05:13:03.373Z,49.90
2019-05-06T05:15:33.820Z,49.90
2019-05-06T05:18:05.591Z,49.80
2019-05-06T05:20:39.705Z,49.10
2019-05-06T05:23:08.352Z,49.10
2019-05-06T05:25:39.612Z,49.20
2019-05-06T05:28:09.901Z,48.30
2019-05-06T05:30:42.781Z,49.00
2019-05-06T05:33:12.467Z,49.10
2019-05-06T05:35:43.324Z,49.00
2019-05-06T05:38:13.922Z,49.10
2019-05-06T05:40:44.761Z,49.00
2019-05-06T05:43:16.346Z,48.60
2019-05-06T05:45:46.783Z,48.50
2019-05-06T05:48:18.757Z,48.50
2019-05-06T05:50:49.034Z,48.60
2019-05-06T05:53:19.477Z,48.50
2019-05-06T05:55:49.818Z,48.30
2019-05-06T05:58:24.512Z,47.60
2019-05-06T06:00:52.764Z,48.10
2019-05-06T06:03:23.106Z,47.90
2019-05-06T06:05:53.467Z,47.60
2019-05-06T06:08:24.815Z,47.00
2019-05-06T06:10:56.719Z,46.30
2019-05-06T06:13:27.299Z,46.50
2019-05-06T06:15:59.057Z,45.30
2019-05-06T06:18:33.230Z,45.70
2019-05-06T06:21:17.737Z,46.00
2019-05-06T06:23:37.455Z,45.90
2019-05-06T06:26:08.301Z,45.90
2019-05-06T06:28:38.520Z,45.60
2019-05-06T06:31:12.036Z,44.50
2019-05-06T06:33:42.862Z,44.70
2019-05-06T06:36:14.651Z,44.00
2019-05-06T06:38:46.492Z,44.10
2019-05-06T06:41:16.816Z,43.80
2019-05-06T06:43:49.054Z,43.70
2019-05-06T06:46:19.546Z,43.40
2019-05-06T06:48:52.605Z,42.80
2019-05-06T06:51:23.373Z,42.60
2019-05-06T06:53:53.453Z,42.70
2019-05-06T06:56:25.497Z,41.40
2019-05-06T06:58:58.233Z,42.10
2019-05-06T07:01:29.934Z,42.40
2019-05-06T07:04:06.765Z,42.60
2019-05-06T07:06:35.128Z,42.70
2019-05-06T07:09:06.984Z,42.40
2019-05-06T07:11:37.928Z,42.50
2019-05-06T07:14:08.509Z,42.50
2019-05-06T07:16:38.807Z,42.50
2019-05-06T07:19:09.312Z,39.70
2019-05-06T07:21:43.352Z,41.60
2019-05-06T07:24:13.081Z,40.70
2019-05-06T07:26:44.921Z,40.80
2019-05-06T07:29:21.628Z,41.00
2019-05-06T07:31:46.773Z,41.20
2019-05-06T07:34:17.334Z,39.90
2019-05-06T07:36:47.697Z,39.10
2019-05-06T07:39:17.921Z,39.90
2019-05-06T07:41:49.465Z,40.90
2019-05-06T07:44:22.429Z,41.70
2019-05-06T07:46:54.185Z,43.00
2019-05-06T07:49:24.768Z,43.60
2019-05-06T07:51:55.043Z,43.50
2019-05-06T07:54:25.537Z,44.00
2019-05-06T07:56:55.885Z,44.40
2019-05-06T07:59:26.118Z,44.60
2019-05-06T08:01:56.422Z,44.60
2019-05-06T08:04:26.714Z,44.50
2019-05-06T08:06:57.059Z,44.80
2019-05-06T08:09:27.297Z,44.70
2019-05-06T08:11:57.553Z,44.80
2019-05-06T08:14:29.259Z,45.10
2019-05-06T08:17:02.238Z,45.20
2019-05-06T08:19:33.659Z,45.10
2019-05-06T08:22:05.410Z,45.40
2019-05-06T08:24:36.362Z,45.60
2019-05-06T08:27:06.596Z,45.90
2019-05-06T08:29:36.983Z,46.20
2019-05-06T08:32:07.308Z,46.10
2019-05-06T08:34:37.817Z,46.10
2019-05-06T08:37:09.518Z,46.20
2019-05-06T08:39:43.217Z,46.10
2019-05-06T08:42:13.533Z,45.90
2019-05-06T08:44:43.831Z,46.00
2019-05-06T08:47:14.452Z,46.00
2019-05-06T08:49:49.185Z,46.40
2019-05-06T08:52:19.236Z,46.80
2019-05-06T08:54:52.561Z,46.80
2019-05-06T08:57:22.808Z,47.00
2019-05-06T08:59:53.789Z,47.20
2019-05-06T09:02:25.369Z,46.90
2019-05-06T09:04:55.682Z,47.40
2019-05-06T09:07:26.097Z,47.40
2019-05-06T09:09:56.340Z,47.50
2019-05-06T09:12:26.542Z,47.50
2019-05-06T09:14:56.913Z,47.50
2019-05-06T09:17:27.083Z,47.50
2019-05-06T09:19:57.292Z,47.60
2019-05-06T09:22:27.622Z,47.60
2019-05-06T09:24:57.832Z,47.60
2019-05-06T09:27:29.327Z,47.70
2019-05-06T09:30:03.025Z,47.90
2019-05-06T09:32:35.945Z,48.00
2019-05-06T09:35:07.474Z,48.10
2019-05-06T09:37:37.773Z,48.20
2019-05-06T09:40:12.568Z,48.40
2019-05-06T09:42:42.584Z,48.60
2019-05-06T09:45:13.737Z,48.90
2019-05-06T09:47:45.394Z,49.00
2019-05-06T09:50:17.583Z,48.50
2019-05-06T09:52:47.894Z,48.60
2019-05-06T09:55:22.033Z,48.80
2019-05-06T09:57:52.733Z,49.20
2019-05-06T10:00:23.705Z,49.50
2019-05-06T10:02:54.568Z,49.90
2019-05-06T10:05:24.848Z,50.70
2019-05-06T10:07:55.434Z,51.90
2019-05-06T10:10:26.636Z,53.20
2019-05-06T10:12:56.940Z,54.60
2019-05-06T10:15:27.616Z,55.90
2019-05-06T10:17:59.167Z,57.20
2019-05-06T10:20:29.522Z,57.40
2019-05-06T10:22:59.975Z,59.60
2019-05-06T10:25:30.679Z,58.40
2019-05-06T10:28:02.795Z,58.20
2019-05-06T10:30:33.346Z,59.70
2019-05-06T10:33:04.827Z,59.10
2019-05-06T10:35:35.073Z,59.00
2019-05-06T10:38:08.170Z,59.10
2019-05-06T10:40:57.344Z,59.50
2019-05-06T10:43:15.715Z,59.90
2019-05-06T10:45:46.110Z,61.10
2019-05-06T10:48:16.721Z,61.80
2019-05-06T10:50:48.338Z,62.60
2019-05-06T10:53:22.963Z,62.40
2019-05-06T10:55:53.730Z,63.00
2019-05-06T10:58:24.214Z,64.80
2019-05-06T11:00:56.425Z,64.00
2019-05-06T11:03:27.725Z,64.00
2019-05-06T11:05:58.126Z,64.70
2019-05-06T11:08:28.438Z,64.00
2019-05-06T11:11:14.012Z,64.40
2019-05-06T11:13:32.146Z,64.80
2019-05-06T11:16:03.442Z,65.50
2019-05-06T11:18:33.773Z,65.80
2019-05-06T11:21:04.109Z,66.10
2019-05-06T11:23:34.424Z,65.80
2019-05-06T11:26:04.777Z,65.40
2019-05-06T11:28:36.224Z,65.40
2019-05-06T11:31:09.254Z,65.50
2019-05-06T11:33:42.455Z,65.50
2019-05-06T11:36:15.221Z,65.60
2019-05-06T11:38:48.378Z,65.50
2019-05-06T11:41:17.648Z,65.60
2019-05-06T11:43:47.936Z,65.90
2019-05-06T11:46:18.234Z,66.40
2019-05-06T11:48:48.663Z,66.80
2019-05-06T11:51:20.218Z,67.40
2019-05-06T11:53:53.827Z,67.70
2019-05-06T11:56:23.028Z,67.60
2019-05-06T11:58:55.361Z,67.50
2019-05-06T12:01:26.908Z,67.60
2019-05-06T12:03:57.149Z,68.50
2019-05-06T12:06:27.659Z,68.00
2019-05-06T12:08:58.086Z,68.20
2019-05-06T12:11:28.338Z,68.20
2019-05-06T12:13:58.745Z,68.20
2019-05-06T12:16:28.863Z,68.00
2019-05-06T12:18:59.912Z,67.70
2019-05-06T12:21:32.761Z,67.50
2019-05-06T12:24:02.914Z,67.20
2019-05-06T12:26:33.712Z,67.10
2019-05-06T12:29:04.134Z,67.00
2019-05-06T12:31:34.548Z,66.70
2019-05-06T12:34:04.810Z,66.70
2019-05-06T12:36:35.299Z,66.60
2019-05-06T12:39:08.537Z,66.50
2019-05-06T12:41:42.884Z,66.70
2019-05-06T12:44:13.077Z,67.00
2019-05-06T12:46:44.721Z,67.10
2019-05-06T12:49:15.193Z,67.00
2019-05-06T12:51:45.283Z,66.80
2019-05-06T12:54:15.852Z,66.80
2019-05-06T12:56:46.496Z,66.70
2019-05-06T12:59:16.925Z,66.70
2019-05-06T13:01:47.417Z,66.70
2019-05-06T13:04:17.620Z,66.60
2019-05-06T13:06:48.058Z,66.60
2019-05-06T13:09:18.531Z,66.40
2019-05-06T13:11:48.908Z,66.50
2019-05-06T13:14:19.352Z,66.70
2019-05-06T13:16:49.801Z,66.90
2019-05-06T13:19:19.993Z,67.20
2019-05-06T13:21:50.461Z,67.50
2019-05-06T13:24:22.687Z,67.20
2019-05-06T13:26:52.760Z,67.00
2019-05-06T13:29:25.839Z,66.90
2019-05-06T13:31:56.084Z,66.90
2019-05-06T13:34:26.510Z,67.00
2019-05-06T13:36:56.972Z,67.00
2019-05-06T13:39:27.367Z,67.20
2019-05-06T13:41:57.810Z,67.20
2019-05-06T13:44:28.010Z,67.00
2019-05-06T13:46:58.352Z,66.70
2019-05-06T13:49:30.137Z,66.30
2019-05-06T13:52:04.204Z,66.00
2019-05-06T13:54:33.481Z,65.70
2019-05-06T13:57:03.732Z,65.70
2019-05-06T13:59:35.171Z,65.50
2019-05-06T14:02:08.154Z,65.30
2019-05-06T14:04:38.813Z,65.30
2019-05-06T14:07:09.793Z,65.20
2019-05-06T14:09:43.479Z,65.00
2019-05-06T14:12:12.847Z,64.90
2019-05-06T14:14:43.315Z,64.70
2019-05-06T14:17:13.876Z,64.60
2019-05-06T14:19:44.280Z,64.50
2019-05-06T14:22:14.466Z,64.30
2019-05-06T14:24:45.946Z,64.30
2019-05-06T14:27:17.480Z,64.20
2019-05-06T14:29:49.168Z,63.90
2019-05-06T14:32:19.278Z,63.80
2019-05-06T14:34:51.967Z,63.60
2019-05-06T14:37:22.581Z,63.50
2019-05-06T14:39:59.216Z,63.50
2019-05-06T14:42:26.045Z,63.50
2019-05-06T14:44:56.324Z,63.70
2019-05-06T14:47:27.995Z,63.90
2019-05-06T14:49:58.200Z,64.40
2019-05-06T14:52:28.436Z,65.10
2019-05-06T14:55:00.086Z,65.50
2019-05-06T14:57:32.291Z,65.90
2019-05-06T15:00:04.314Z,66.30
2019-05-06T15:02:34.698Z,66.90
2019-05-06T15:05:06.592Z,67.40
2019-05-06T15:07:36.940Z,67.60
2019-05-06T15:10:20.259Z,68.00
2019-05-06T15:12:42.450Z,68.80
2019-05-06T15:15:12.237Z,68.40
2019-05-06T15:17:43.170Z,68.40
2019-05-06T15:20:13.811Z,68.60
2019-05-06T15:22:44.301Z,68.50
2019-05-06T15:25:14.674Z,68.70
2019-05-06T15:27:44.871Z,68.60
2019-05-06T15:30:16.805Z,68.60
2019-05-06T15:32:46.985Z,68.90
2019-05-06T15:35:18.801Z,68.80
2019-05-06T15:37:53.139Z,68.70
2019-05-06T15:40:31.894Z,68.80
2019-05-06T15:42:53.845Z,69.00
2019-05-06T15:45:24.205Z,68.90
2019-05-06T15:47:54.546Z,68.80
2019-05-06T15:50:25.130Z,68.90
2019-05-06T15:52:55.340Z,69.00
2019-05-06T15:55:25.682Z,69.00
2019-05-06T15:57:55.941Z,69.00
2019-05-06T16:00:26.525Z,69.00
2019-05-06T16:02:56.891Z,69.10
2019-05-06T16:05:27.206Z,69.30
2019-05-06T16:07:57.519Z,69.70
2019-05-06T16:10:27.862Z,70.00
2019-05-06T16:12:58.098Z,70.00
2019-05-06T16:15:28.429Z,70.10
2019-05-06T16:17:58.727Z,70.10
2019-05-06T16:20:29.208Z,70.10
2019-05-06T16:23:00.626Z,69.90
2019-05-06T16:25:32.120Z,69.50
2019-05-06T16:28:02.824Z,69.30
2019-05-06T16:30:33.923Z,69.00
2019-05-06T16:33:04.486Z,68.80
2019-05-06T16:35:35.085Z,68.60
2019-05-06T16:38:05.565Z,68.50
2019-05-06T16:40:35.936Z,68.30
2019-05-06T16:43:06.977Z,68.30
2019-05-06T16:45:37.480Z,68.20
2019-05-06T16:48:07.907Z,68.30
2019-05-06T16:50:38.456Z,68.50
2019-05-06T16:53:08.745Z,68.40
2019-05-06T16:55:40.229Z,68.40
2019-05-06T16:58:11.922Z,68.50
2019-05-06T17:00:42.955Z,68.40
2019-05-06T17:03:14.572Z,68.30
2019-05-06T17:05:46.241Z,68.30
2019-05-06T17:08:16.568Z,68.40
2019-05-06T17:10:46.873Z,68.50
2019-05-06T17:13:16.932Z,68.60
2019-05-06T17:15:49.841Z,68.70
2019-05-06T17:18:19.130Z,68.70
2019-05-06T17:20:49.318Z,68.80
2019-05-06T17:23:19.856Z,69.00
2019-05-06T17:25:51.982Z,69.20
2019-05-06T17:28:22.733Z,69.20
2019-05-06T17:30:54.468Z,69.30
2019-05-06T17:33:26.012Z,69.40
2019-05-06T17:35:56.261Z,69.50
2019-05-06T17:38:27.753Z,70.30
2019-05-06T17:40:58.089Z,69.50
2019-05-06T17:43:28.640Z,69.70
2019-05-06T17:46:03.105Z,69.70
2019-05-06T17:48:33.219Z,69.80
2019-05-06T17:51:05.015Z,69.90
2019-05-06T17:53:35.298Z,69.80
2019-05-06T17:56:06.329Z,69.80
2019-05-06T17:58:36.669Z,69.90
2019-05-06T18:01:07.909Z,70.00
2019-05-06T18:03:38.178Z,70.10
2019-05-06T18:06:13.742Z,70.20
2019-05-06T18:08:40.140Z,70.40
2019-05-06T18:11:12.744Z,70.60
2019-05-06T18:13:42.172Z,70.70
2019-05-06T18:16:13.182Z,70.80
2019-05-06T18:18:43.817Z,70.80
2019-05-06T18:21:14.231Z,70.80
2019-05-06T18:23:44.644Z,70.80
2019-05-06T18:26:15.123Z,70.80
2019-05-06T18:28:45.351Z,71.00
2019-05-06T18:31:15.622Z,71.10
2019-05-06T18:33:45.799Z,71.20
2019-05-06T18:36:16.091Z,71.30
2019-05-06T18:38:46.253Z,71.30
2019-05-06T18:41:16.970Z,71.40
2019-05-06T18:43:47.281Z,71.50
2019-05-06T18:46:17.475Z,71.60
2019-05-06T18:48:47.654Z,71.60
2019-05-06T18:51:17.968Z,71.80
2019-05-06T18:53:48.479Z,71.80
2019-05-06T18:56:19.004Z,71.80
2019-05-06T18:58:49.419Z,71.90
2019-05-06T19:01:19.706Z,71.90
2019-05-06T19:03:52.538Z,72.10
2019-05-06T19:06:23.333Z,72.00
2019-05-06T19:08:55.096Z,72.10
2019-05-06T19:11:26.017Z,72.10
2019-05-06T19:13:56.409Z,72.10
2019-05-06T19:16:26.567Z,72.20
2019-05-06T19:18:56.916Z,72.20
2019-05-06T19:21:27.228Z,72.20
2019-05-06T19:23:59.196Z,72.20
2019-05-06T19:26:29.395Z,72.30
2019-05-06T19:28:59.555Z,72.30
2019-05-06T19:31:32.101Z,72.30
2019-05-06T19:34:03.247Z,72.30
2019-05-06T19:36:34.831Z,72.20
2019-05-06T19:39:06.773Z,72.20
2019-05-06T19:41:37.118Z,72.20
2019-05-06T19:44:07.416Z,72.20
2019-05-06T19:46:37.564Z,72.20
2019-05-06T19:49:08.149Z,72.10
2019-05-06T19:51:38.265Z,72.10
2019-05-06T19:54:08.502Z,72.10
2019-05-06T19:56:38.666Z,72.10
2019-05-06T19:59:09.123Z,72.10
2019-05-06T20:01:39.295Z,72.00
2019-05-06T20:04:09.815Z,72.20
2019-05-06T20:06:41.684Z,72.20
2019-05-06T20:09:13.833Z,72.20
2019-05-06T20:11:45.006Z,72.30
2019-05-06T20:14:15.218Z,72.30
2019-05-06T20:16:45.517Z,72.40
2019-05-06T20:19:28.094Z,72.50
2019-05-06T20:21:47.022Z,72.40
2019-05-06T20:24:17.362Z,72.50
2019-05-06T20:26:47.758Z,72.50
2019-05-06T20:29:18.011Z,72.50
2019-05-06T20:31:48.321Z,72.40
2019-05-06T20:34:18.530Z,72.70
2019-05-06T20:36:49.010Z,72.60
2019-05-06T20:39:19.519Z,72.60
2019-05-06T20:41:49.774Z,72.60
2019-05-06T20:44:20.002Z,72.50
2019-05-06T20:46:50.126Z,72.70
2019-05-06T20:49:20.998Z,72.80
2019-05-06T20:51:52.209Z,72.70
2019-05-06T20:54:23.679Z,72.70
2019-05-06T20:56:54.202Z,72.60
2019-05-06T20:59:24.719Z,72.50
2019-05-06T21:01:55.410Z,72.60
2019-05-06T21:04:25.763Z,72.70
2019-05-06T21:06:55.991Z,72.70
2019-05-06T21:09:26.440Z,72.50
2019-05-06T21:11:56.687Z,72.70
2019-05-06T21:14:27.191Z,73.00
2019-05-06T21:16:57.562Z,73.30
2019-05-06T21:19:28.601Z,73.40
2019-05-06T21:21:58.900Z,73.40
2019-05-06T21:24:29.243Z,73.60
2019-05-06T21:26:59.509Z,73.70
2019-05-06T21:29:29.811Z,73.70
2019-05-06T21:32:00.123Z,73.70
2019-05-06T21:34:32.669Z,73.70
2019-05-06T21:37:03.627Z,73.70
2019-05-06T21:39:34.142Z,73.80
2019-05-06T21:42:04.478Z,74.30
2019-05-06T21:44:34.668Z,73.90
2019-05-06T21:47:05.069Z,73.90
2019-05-06T21:49:35.490Z,74.00
2019-05-06T21:52:06.232Z,74.10
2019-05-06T21:54:36.631Z,74.10
2019-05-06T21:57:06.973Z,74.30
2019-05-06T21:59:37.307Z,74.30
2019-05-06T22:02:09.201Z,74.60
2019-05-06T22:04:39.479Z,74.70
2019-05-06T22:07:12.020Z,74.70
2019-05-06T22:09:43.057Z,74.90
2019-05-06T22:12:13.083Z,74.80
2019-05-06T22:14:43.386Z,74.90
2019-05-06T22:17:14.247Z,74.90
2019-05-06T22:19:44.328Z,75.00
2019-05-06T22:22:15.947Z,75.20
2019-05-06T22:24:47.397Z,75.20
2019-05-06T22:27:18.075Z,75.30
2019-05-06T22:29:48.656Z,75.30
2019-05-06T22:32:18.929Z,75.30
2019-05-06T22:34:49.541Z,75.30
2019-05-06T22:37:21.994Z,75.20
2019-05-06T22:39:52.831Z,75.30
2019-05-06T22:42:24.964Z,75.50
2019-05-06T22:44:54.632Z,75.60
2019-05-06T22:47:24.890Z,75.70
2019-05-06T22:49:55.110Z,75.70
2019-05-06T22:52:25.476Z,75.80
2019-05-06T22:54:55.836Z,75.80
2019-05-06T22:57:25.937Z,75.90
2019-05-06T22:59:56.463Z,76.00
2019-05-06T23:02:28.107Z,76.00
2019-05-06T23:04:59.704Z,75.90
2019-05-06T23:07:30.184Z,76.10
2019-05-06T23:10:03.274Z,76.10
2019-05-06T23:12:33.726Z,76.10
2019-05-06T23:15:03.907Z,76.00
2019-05-06T23:17:34.429Z,76.00
2019-05-06T23:20:06.161Z,75.90
2019-05-06T23:22:36.547Z,75.80
2019-05-06T23:25:07.902Z,75.70
2019-05-06T23:27:38.178Z,75.70
2019-05-06T23:30:09.027Z,75.60
2019-05-06T23:32:39.306Z,75.70
2019-05-06T23:35:09.849Z,75.60
2019-05-06T23:37:43.085Z,75.60
2019-05-06T23:40:17.367Z,75.60
2019-05-06T23:42:52.575Z,75.60
2019-05-06T23:45:25.858Z,75.70
2019-05-06T23:47:58.703Z,75.80
2019-05-06T23:50:31.996Z,75.80
2019-05-06T23:53:05.070Z,75.80
2019-05-06T23:55:38.064Z,76.00
2019-05-06T23:58:07.402Z,76.10
